La Place, Illinois
Current Conditions -  °F | °C
As of 3:54 AM on Thursday 29 Jan 2015 (Local Time) from KDEC Reporting Station
Clear Clear  
Wind Chill: 36°   Ceiling: Unl
Heat Index: 44°   Visibility: 10mi
Dew Point: 36°   Wind: 21mph
Humidity: 73%   Direction: 210°SSW
Pressure: 29.72"   Gusts: NA
Location:  39.8°N, 88.71°W
Report Text: KDEC 290954Z AUTO 21018KT 10SM CLR 07/02 A2972 RMK AO2 SLP066 T00670022 TSNO
Loading
Personal Weather Stations






























Interactive Weather Map New forecast layout! Learn more

10-Day Weather Forecast

Advertisements
Track Severe Weather on mobile